Time;durP1;ratioP1;P1;durP2;ratioP2;P2;SDS_P1;SDS_P2;PMS_P1;PMS_P2;Temp;Humidity;BMP_temperature;BMP_pressure;BME280_temperature;BME280_humidity;BME280_pressure;Samples;Min_cycle;Max_cycle;Signal;HPM_P1;HPM_P2
2021/08/28 00:01:57;;;;;;;28.17;9.48;;;;;;;;;;5052984;28;20096;-70
2021/08/28 00:04:22;;;;;;;24.23;9.40;;;;;;;;;;5070023;28;20021;-70
2021/08/28 00:06:47;;;;;;;26.13;9.10;;;;;;;;;;5070285;28;20255;-69
2021/08/28 00:09:12;;;;;;;31.30;9.85;;;;;;;;;;5069832;28;20346;-69
2021/08/28 00:11:37;;;;;;;26.97;9.93;;;;;;;;;;5070020;28;20031;-69
2021/08/28 00:14:03;;;;;;;23.20;8.57;;;;;;;;;;5076698;23;20829;-70
2021/08/28 00:16:28;;;;;;;23.10;8.85;;;;;;;;;;5089411;28;20047;-70
2021/08/28 00:18:53;;;;;;;21.88;8.52;;;;;;;;;;5090581;28;20040;-70
2021/08/28 00:21:19;;;;;;;21.30;8.27;;;;;;;;;;5072517;28;20027;-70
2021/08/28 00:23:44;;;;;;;33.53;8.97;;;;;;;;;;5069614;28;20275;-70
2021/08/28 00:26:09;;;;;;;35.08;11.25;;;;;;;;;;5070014;28;20254;-71
2021/08/28 00:28:34;;;;;;;32.73;9.90;;;;;;;;;;5069813;28;20107;-70
2021/08/28 00:30:59;;;;;;;26.83;10.43;;;;;;;;;;5069957;28;20272;-70
2021/08/28 00:33:25;;;;;;;33.72;10.30;;;;;;;;;;5086160;28;20298;-70
2021/08/28 00:35:50;;;;;;;35.58;11.68;;;;;;;;;;5090060;28;20020;-71
2021/08/28 00:38:15;;;;;;;31.42;11.30;;;;;;;;;;5089825;28;20070;-70
2021/08/28 00:40:40;;;;;;;30.25;10.52;;;;;;;;;;5088487;28;20023;-70
2021/08/28 00:43:06;;;;;;;26.42;10.38;;;;;;;;;;5089887;28;20016;-70
2021/08/28 00:45:32;;;;;;;37.25;11.70;;;;;;;;;;5089364;28;20039;-70
2021/08/28 00:48:07;;;;;;;27.05;12.15;;;;;;;;;;5092306;28;20020;-71
2021/08/28 00:50:34;;;;;;;38.42;13.00;;;;;;;;;;5093262;28;20013;-70
2021/08/28 00:53:01;;;;;;;27.50;12.48;;;;;;;;;;5093305;28;20028;-70
2021/08/28 00:55:27;;;;;;;44.08;14.40;;;;;;;;;;5093517;28;20050;-70
2021/08/28 00:57:53;;;;;;;42.25;15.15;;;;;;;;;;5091938;28;20541;-70
2021/08/28 01:00:19;;;;;;;41.85;16.63;;;;;;;;;;5093484;28;20020;-70
2021/08/28 01:02:48;;;;;;;49.42;19.83;;;;;;;;;;5093156;28;20104;-70
2021/08/28 01:05:16;;;;;;;46.47;18.95;;;;;;;;;;5093367;28;20032;-70
2021/08/28 01:08:11;;;;;;;45.85;19.83;;;;;;;;;;5092955;28;20309;-70
2021/08/28 01:10:39;;;;;;;50.80;21.27;;;;;;;;;;5079040;28;20556;-70
2021/08/28 01:13:08;;;;;;;48.33;21.60;;;;;;;;;;5092784;28;20042;-70
2021/08/28 01:15:34;;;;;;;47.78;23.60;;;;;;;;;;5092637;28;20019;-71
2021/08/28 01:18:00;;;;;;;60.53;23.08;;;;;;;;;;5093050;28;20505;-70
2021/08/28 01:20:36;;;;;;;53.63;24.60;;;;;;;;;;5092775;28;20044;-70
2021/08/28 01:23:02;;;;;;;62.78;26.13;;;;;;;;;;5092772;28;20099;-70
2021/08/28 01:25:28;;;;;;;57.65;25.33;;;;;;;;;;5093005;28;20020;-70
2021/08/28 01:27:58;;;;;;;56.75;24.45;;;;;;;;;;5093024;28;20355;-70
2021/08/28 01:30:23;;;;;;;62.55;25.50;;;;;;;;;;5092615;28;20024;-70
2021/08/28 01:32:49;;;;;;;53.03;26.48;;;;;;;;;;5092239;28;20549;-70
2021/08/28 01:35:14;;;;;;;57.97;25.58;;;;;;;;;;5092276;28;20221;-70
2021/08/28 01:37:41;;;;;;;58.47;26.85;;;;;;;;;;5092703;28;20483;-70
2021/08/28 01:40:06;;;;;;;67.53;27.55;;;;;;;;;;5092606;28;20027;-70
2021/08/28 01:42:32;;;;;;;61.58;26.92;;;;;;;;;;5092553;28;20008;-70
2021/08/28 01:44:57;;;;;;;63.40;25.88;;;;;;;;;;5092552;28;20102;-70
2021/08/28 01:47:23;;;;;;;53.45;24.75;;;;;;;;;;5092528;28;20020;-71
2021/08/28 01:49:48;;;;;;;65.82;25.98;;;;;;;;;;5092093;28;20555;-70
2021/08/28 01:52:14;;;;;;;59.15;27.20;;;;;;;;;;5092320;28;20099;-70
2021/08/28 01:54:40;;;;;;;60.05;26.23;;;;;;;;;;5091949;28;20020;-70
2021/08/28 01:57:07;;;;;;;69.93;26.60;;;;;;;;;;5092207;28;20461;-70
2021/08/28 01:59:32;;;;;;;57.65;25.02;;;;;;;;;;5091209;28;20039;-70
2021/08/28 02:01:58;;;;;;;57.42;24.65;;;;;;;;;;5091777;28;20482;-70
2021/08/28 02:04:23;;;;;;;68.23;25.67;;;;;;;;;;5092092;28;20020;-70
2021/08/28 02:07:01;;;;;;;76.20;26.80;;;;;;;;;;5091019;28;20266;-70
2021/08/28 02:09:47;;;;;;;54.97;22.40;;;;;;;;;;5091954;28;20028;-70
2021/08/28 02:12:25;;;;;;;56.05;22.15;;;;;;;;;;5091216;28;20016;-70
2021/08/28 02:14:55;;;;;;;70.22;23.73;;;;;;;;;;5074939;28;20082;-70
2021/08/28 02:17:20;;;;;;;46.03;19.08;;;;;;;;;;5071491;28;20092;-70
2021/08/28 02:19:46;;;;;;;51.33;19.58;;;;;;;;;;5071813;28;20100;-70
2021/08/28 02:22:15;;;;;;;58.28;21.02;;;;;;;;;;5071493;28;20040;-70
2021/08/28 02:24:42;;;;;;;51.83;20.02;;;;;;;;;;5071669;28;20021;-70
2021/08/28 02:27:12;;;;;;;48.33;19.92;;;;;;;;;;5071243;28;20024;-70
2021/08/28 02:29:43;;;;;;;50.92;19.73;;;;;;;;;;5053210;28;20073;-70
2021/08/28 02:32:08;;;;;;;58.17;20.25;;;;;;;;;;5071267;28;20459;-70
2021/08/28 02:34:35;;;;;;;56.05;20.55;;;;;;;;;;5071274;28;20020;-70
2021/08/28 02:37:00;;;;;;;55.75;21.75;;;;;;;;;;5071019;28;20035;-70
2021/08/28 02:39:27;;;;;;;64.53;22.00;;;;;;;;;;5071100;28;20024;-70
2021/08/28 02:41:52;;;;;;;61.67;24.33;;;;;;;;;;5070572;28;20069;-70
2021/08/28 02:44:18;;;;;;;62.88;23.45;;;;;;;;;;5071098;28;20446;-70
2021/08/28 02:46:45;;;;;;;61.88;25.30;;;;;;;;;;5070921;28;20035;-70
2021/08/28 02:49:11;;;;;;;73.70;24.25;;;;;;;;;;5070882;28;20107;-70
2021/08/28 02:51:37;;;;;;;66.20;24.50;;;;;;;;;;5070652;28;20023;-70
2021/08/28 02:54:02;;;;;;;70.50;26.83;;;;;;;;;;5070717;28;20028;-70
2021/08/28 02:56:29;;;;;;;71.57;28.30;;;;;;;;;;5071009;28;20104;-70
2021/08/28 02:58:54;;;;;;;97.05;28.90;;;;;;;;;;5070488;28;20012;-70
2021/08/28 03:01:20;;;;;;;72.88;27.20;;;;;;;;;;5052483;28;20086;-70
2021/08/28 03:03:46;;;;;;;82.30;29.00;;;;;;;;;;5070628;28;20020;-70
2021/08/28 03:06:11;;;;;;;83.28;29.60;;;;;;;;;;5070705;28;20086;-70
2021/08/28 03:08:39;;;;;;;91.13;31.55;;;;;;;;;;5070823;28;20467;-70
2021/08/28 03:11:05;;;;;;;83.07;29.80;;;;;;;;;;5069104;28;20039;-70
2021/08/28 03:13:30;;;;;;;100.20;33.67;;;;;;;;;;5070112;28;20107;-70
2021/08/28 03:15:56;;;;;;;89.57;32.13;;;;;;;;;;5070489;28;20028;-70
2021/08/28 03:18:23;;;;;;;104.78;36.35;;;;;;;;;;5070658;28;20056;-70
2021/08/28 03:20:51;;;;;;;92.90;34.42;;;;;;;;;;5069845;28;20028;-70
2021/08/28 03:23:18;;;;;;;79.70;28.90;;;;;;;;;;5069901;28;20012;-70
2021/08/28 03:25:44;;;;;;;102.85;33.20;;;;;;;;;;5070066;28;20462;-70
2021/08/28 03:28:10;;;;;;;88.57;29.85;;;;;;;;;;5070292;28;20024;-70
2021/08/28 03:30:36;;;;;;;79.65;30.20;;;;;;;;;;5069873;28;20123;-70
2021/08/28 03:33:01;;;;;;;89.35;33.50;;;;;;;;;;5070094;28;20522;-70
2021/08/28 03:35:26;;;;;;;89.80;32.33;;;;;;;;;;5069938;28;20020;-70
2021/08/28 03:37:52;;;;;;;103.82;36.47;;;;;;;;;;5070508;28;20214;-70
2021/08/28 03:40:17;;;;;;;119.78;40.08;;;;;;;;;;5070290;28;20471;-70
2021/08/28 03:42:43;;;;;;;98.40;36.03;;;;;;;;;;5070448;28;20434;-70
2021/08/28 03:45:09;;;;;;;100.85;35.70;;;;;;;;;;5052341;28;20103;-70
2021/08/28 03:47:35;;;;;;;101.15;37.67;;;;;;;;;;5069924;28;20450;-70
2021/08/28 03:50:00;;;;;;;103.03;38.63;;;;;;;;;;5070276;28;20230;-70
2021/08/28 03:52:25;;;;;;;119.47;42.13;;;;;;;;;;5070245;28;20644;-70
2021/08/28 03:54:50;;;;;;;110.25;42.58;;;;;;;;;;5070213;28;20038;-70
2021/08/28 03:57:16;;;;;;;127.90;42.80;;;;;;;;;;5070030;28;20023;-71
2021/08/28 03:59:41;;;;;;;128.50;42.87;;;;;;;;;;5070015;28;20736;-71
2021/08/28 04:02:06;;;;;;;129.83;43.70;;;;;;;;;;5069952;28;20262;-71
2021/08/28 04:04:31;;;;;;;124.20;45.50;;;;;;;;;;5070019;28;20259;-71
2021/08/28 04:06:56;;;;;;;127.27;45.40;;;;;;;;;;5069900;28;20254;-71
2021/08/28 04:09:21;;;;;;;128.80;45.10;;;;;;;;;;5069762;28;20258;-71
2021/08/28 04:11:47;;;;;;;139.27;51.10;;;;;;;;;;5069667;28;20266;-71
2021/08/28 04:14:12;;;;;;;157.50;50.33;;;;;;;;;;5069206;28;20359;-71
2021/08/28 04:16:37;;;;;;;154.18;47.80;;;;;;;;;;5069660;28;20394;-71
2021/08/28 04:19:02;;;;;;;150.03;47.97;;;;;;;;;;5070009;28;20025;-71
2021/08/28 04:21:27;;;;;;;149.77;49.00;;;;;;;;;;5068969;28;20302;-71
2021/08/28 04:23:53;;;;;;;148.27;48.37;;;;;;;;;;5073159;28;20259;-71
2021/08/28 04:26:18;;;;;;;152.88;49.33;;;;;;;;;;5073932;28;20748;-70
2021/08/28 04:28:43;;;;;;;154.87;51.40;;;;;;;;;;5074006;28;20029;-71
2021/08/28 04:31:08;;;;;;;165.63;51.95;;;;;;;;;;5073512;28;20311;-71
2021/08/28 04:33:33;;;;;;;153.00;50.20;;;;;;;;;;5073401;28;20021;-70
2021/08/28 04:35:59;;;;;;;169.77;52.83;;;;;;;;;;5073795;28;20270;-71
2021/08/28 04:38:24;;;;;;;158.70;52.08;;;;;;;;;;5073683;28;20304;-71
2021/08/28 04:40:50;;;;;;;169.87;52.73;;;;;;;;;;5073772;28;20029;-71
2021/08/28 04:43:15;;;;;;;177.73;54.55;;;;;;;;;;5073117;28;20255;-71
2021/08/28 04:45:41;;;;;;;179.70;54.77;;;;;;;;;;5073790;28;20028;-71
2021/08/28 04:48:06;;;;;;;174.07;54.60;;;;;;;;;;5074209;28;20313;-71
2021/08/28 04:50:31;;;;;;;179.93;58.22;;;;;;;;;;5074058;28;20932;-71
2021/08/28 04:52:56;;;;;;;180.57;56.03;;;;;;;;;;5073106;28;20036;-71
2021/08/28 04:55:21;;;;;;;203.07;59.13;;;;;;;;;;5072989;28;20324;-70
2021/08/28 04:57:47;;;;;;;187.82;56.30;;;;;;;;;;5073799;28;20319;-71
2021/08/28 05:00:12;;;;;;;170.98;56.92;;;;;;;;;;5073512;28;20383;-71
2021/08/28 05:02:37;;;;;;;184.43;57.17;;;;;;;;;;5073429;28;20048;-71
2021/08/28 05:05:03;;;;;;;176.35;53.72;;;;;;;;;;5073598;28;20410;-70
2021/08/28 05:07:29;;;;;;;179.10;54.03;;;;;;;;;;5072544;28;20023;-71
2021/08/28 05:09:54;;;;;;;178.82;54.63;;;;;;;;;;5073482;28;20078;-71
2021/08/28 05:12:19;;;;;;;182.47;54.13;;;;;;;;;;5072810;28;20020;-71
2021/08/28 05:14:45;;;;;;;170.70;53.30;;;;;;;;;;5072876;28;20279;-71
2021/08/28 05:17:10;;;;;;;169.03;53.93;;;;;;;;;;5073105;28;20487;-70
2021/08/28 05:19:35;;;;;;;171.73;53.30;;;;;;;;;;5072791;28;20262;-70
2021/08/28 05:22:00;;;;;;;161.02;47.55;;;;;;;;;;5072487;28;20695;-70
2021/08/28 05:24:25;;;;;;;154.13;47.97;;;;;;;;;;5073035;28;20021;-71
2021/08/28 05:26:51;;;;;;;150.43;47.57;;;;;;;;;;5072959;28;20255;-70
2021/08/28 05:29:16;;;;;;;147.70;46.77;;;;;;;;;;5072617;28;20259;-71
2021/08/28 05:31:41;;;;;;;146.93;46.90;;;;;;;;;;5072124;28;20343;-70
2021/08/28 05:34:06;;;;;;;144.43;46.60;;;;;;;;;;5071152;28;20683;-70
2021/08/28 05:36:31;;;;;;;148.97;47.03;;;;;;;;;;5072429;28;20493;-70
2021/08/28 05:38:57;;;;;;;137.50;45.75;;;;;;;;;;5072560;28;20259;-70
2021/08/28 05:41:22;;;;;;;153.05;49.00;;;;;;;;;;5054225;28;20021;-70
2021/08/28 05:43:47;;;;;;;122.60;45.30;;;;;;;;;;5072216;28;20027;-70
2021/08/28 05:46:12;;;;;;;131.43;42.40;;;;;;;;;;5072393;28;20495;-70
2021/08/28 05:48:37;;;;;;;118.03;40.47;;;;;;;;;;5072438;28;20262;-71
2021/08/28 05:51:03;;;;;;;135.10;42.42;;;;;;;;;;5072178;28;20271;-70
2021/08/28 05:53:28;;;;;;;120.50;40.92;;;;;;;;;;5071794;28;20042;-70
2021/08/28 05:55:53;;;;;;;95.13;35.63;;;;;;;;;;5071831;28;20396;-70
2021/08/28 05:58:18;;;;;;;103.03;34.43;;;;;;;;;;5072112;28;20271;-70
2021/08/28 06:00:43;;;;;;;86.43;33.33;;;;;;;;;;5072137;28;20338;-70
2021/08/28 06:03:08;;;;;;;85.37;30.07;;;;;;;;;;5071663;28;20289;-70
2021/08/28 06:05:34;;;;;;;87.27;32.73;;;;;;;;;;5071947;28;20255;-70
2021/08/28 06:07:59;;;;;;;83.63;31.40;;;;;;;;;;5071732;28;20277;-71
2021/08/28 06:10:24;;;;;;;69.17;26.93;;;;;;;;;;5071444;28;20382;-70
2021/08/28 06:12:49;;;;;;;66.30;27.85;;;;;;;;;;5071724;28;20282;-70
2021/08/28 06:15:14;;;;;;;58.80;25.27;;;;;;;;;;5115670;22;20093;-71
2021/08/28 06:17:40;;;;;;;55.47;25.70;;;;;;;;;;5070752;28;20267;-70
2021/08/28 06:20:05;;;;;;;49.78;23.58;;;;;;;;;;5071420;28;20024;-70
2021/08/28 06:22:31;;;;;;;42.88;21.67;;;;;;;;;;5071086;28;20020;-70
2021/08/28 06:24:56;;;;;;;36.17;19.60;;;;;;;;;;5086928;28;20042;-70
2021/08/28 06:27:21;;;;;;;37.65;19.70;;;;;;;;;;5091891;28;20153;-71
2021/08/28 06:29:46;;;;;;;37.90;18.63;;;;;;;;;;5091434;28;20019;-70
2021/08/28 06:32:12;;;;;;;32.70;16.53;;;;;;;;;;5073119;28;20023;-70
2021/08/28 06:34:37;;;;;;;29.30;16.17;;;;;;;;;;5091262;28;20322;-70
2021/08/28 06:37:02;;;;;;;31.87;16.07;;;;;;;;;;5091004;28;20250;-71
2021/08/28 06:39:27;;;;;;;26.23;13.55;;;;;;;;;;5091164;28;20261;-70
2021/08/28 06:41:53;;;;;;;22.30;12.30;;;;;;;;;;5090653;28;20023;-70
2021/08/28 06:44:18;;;;;;;19.77;11.35;;;;;;;;;;5091262;28;20331;-71
2021/08/28 06:46:43;;;;;;;21.27;10.75;;;;;;;;;;5091207;28;20047;-70
2021/08/28 06:49:08;;;;;;;17.87;11.43;;;;;;;;;;5090826;28;20036;-71
2021/08/28 06:51:33;;;;;;;23.40;12.55;;;;;;;;;;5091234;28;20329;-70
2021/08/28 06:53:59;;;;;;;31.20;14.10;;;;;;;;;;5090450;28;20038;-72
2021/08/28 06:56:24;;;;;;;24.20;13.33;;;;;;;;;;5091044;28;20023;-71
2021/08/28 06:58:49;;;;;;;22.90;13.13;;;;;;;;;;5090902;28;20631;-71
2021/08/28 07:01:14;;;;;;;24.70;13.23;;;;;;;;;;5090985;28;20258;-71
2021/08/28 07:03:40;;;;;;;23.50;13.05;;;;;;;;;;5090984;28;20057;-71
2021/08/28 07:06:05;;;;;;;26.65;12.90;;;;;;;;;;5090793;28;20024;-70
2021/08/28 07:08:30;;;;;;;31.07;14.57;;;;;;;;;;5090385;28;20023;-70
2021/08/28 07:10:55;;;;;;;26.42;13.20;;;;;;;;;;5090343;28;20593;-70
2021/08/28 07:13:21;;;;;;;28.47;14.83;;;;;;;;;;5090385;28;20382;-71
2021/08/28 07:15:47;;;;;;;26.77;14.10;;;;;;;;;;5082700;28;20275;-70
2021/08/28 07:18:12;;;;;;;19.25;13.40;;;;;;;;;;5074663;28;20027;-70
2021/08/28 07:20:38;;;;;;;24.33;13.43;;;;;;;;;;5091038;28;20016;-70
2021/08/28 07:23:03;;;;;;;24.33;12.15;;;;;;;;;;5090447;28;20258;-71
2021/08/28 07:25:28;;;;;;;20.63;12.98;;;;;;;;;;5068977;28;20020;-71
2021/08/28 07:27:53;;;;;;;20.27;12.13;;;;;;;;;;5071609;28;20031;-70
2021/08/28 07:30:19;;;;;;;20.55;11.98;;;;;;;;;;5090567;28;20043;-71
2021/08/28 07:32:44;;;;;;;17.52;12.10;;;;;;;;;;5090494;28;20040;-71
2021/08/28 07:35:09;;;;;;;22.27;13.75;;;;;;;;;;5090230;28;20452;-71
2021/08/28 07:37:34;;;;;;;22.30;13.25;;;;;;;;;;5087213;28;20742;-71
2021/08/28 07:40:00;;;;;;;21.47;14.17;;;;;;;;;;5087771;28;20491;-72
2021/08/28 07:42:25;;;;;;;21.80;14.02;;;;;;;;;;5071655;28;20271;-70
2021/08/28 07:44:50;;;;;;;26.83;15.13;;;;;;;;;;5070340;28;20140;-70
2021/08/28 07:47:15;;;;;;;29.00;16.30;;;;;;;;;;5070225;28;20258;-70
2021/08/28 07:49:41;;;;;;;28.52;16.73;;;;;;;;;;5071160;28;20150;-70
2021/08/28 07:52:06;;;;;;;28.90;16.17;;;;;;;;;;5069824;28;20052;-70
2021/08/28 07:54:31;;;;;;;27.05;17.05;;;;;;;;;;5070004;28;20501;-70
2021/08/28 07:56:59;;;;;;;33.43;17.00;;;;;;;;;;5076277;28;20524;-70
2021/08/28 07:59:24;;;;;;;31.60;16.20;;;;;;;;;;5079076;28;20271;-70
2021/08/28 08:01:49;;;;;;;28.40;16.35;;;;;;;;;;5073751;28;20111;-70
2021/08/28 08:04:15;;;;;;;27.30;15.68;;;;;;;;;;5074013;28;20009;-70
2021/08/28 08:06:40;;;;;;;24.77;15.00;;;;;;;;;;5074104;28;20092;-70
2021/08/28 08:09:05;;;;;;;25.83;15.67;;;;;;;;;;5085427;28;20123;-70
2021/08/28 08:11:30;;;;;;;27.33;15.17;;;;;;;;;;5079485;28;20624;-70
2021/08/28 08:13:55;;;;;;;26.33;14.77;;;;;;;;;;5079337;28;20270;-70
2021/08/28 08:16:20;;;;;;;22.30;13.30;;;;;;;;;;5094224;28;20055;-70
2021/08/28 08:18:47;;;;;;;20.63;12.30;;;;;;;;;;5094098;28;20262;-70
2021/08/28 08:21:12;;;;;;;23.73;12.23;;;;;;;;;;5093990;28;20297;-70
2021/08/28 08:23:38;;;;;;;19.02;10.85;;;;;;;;;;5093892;28;20434;-70
2021/08/28 08:26:03;;;;;;;15.75;10.52;;;;;;;;;;5094261;28;20022;-70
2021/08/28 08:28:29;;;;;;;15.35;10.55;;;;;;;;;;5093997;28;20020;-70
2021/08/28 08:30:54;;;;;;;17.58;10.85;;;;;;;;;;5093708;28;20094;-70
2021/08/28 08:33:19;;;;;;;15.60;10.02;;;;;;;;;;5093169;28;20038;-70
2021/08/28 08:35:44;;;;;;;17.77;9.77;;;;;;;;;;5075513;28;20026;-70
2021/08/28 08:38:09;;;;;;;14.73;10.15;;;;;;;;;;5089236;28;20270;-70
2021/08/28 08:40:35;;;;;;;16.03;9.80;;;;;;;;;;5093404;28;20028;-70
2021/08/28 08:43:01;;;;;;;15.80;10.25;;;;;;;;;;5092502;28;20265;-70
2021/08/28 08:45:26;;;;;;;14.32;9.70;;;;;;;;;;5093736;28;20024;-70
2021/08/28 08:47:52;;;;;;;18.30;10.65;;;;;;;;;;5093790;28;20039;-70
2021/08/28 08:50:17;;;;;;;14.02;11.00;;;;;;;;;;5093341;28;20024;-70
2021/08/28 08:52:44;;;;;;;20.65;11.90;;;;;;;;;;5093031;28;20054;-70
2021/08/28 08:55:09;;;;;;;19.38;12.00;;;;;;;;;;5093217;28;20097;-70
2021/08/28 08:57:34;;;;;;;21.60;12.65;;;;;;;;;;5092856;28;20525;-70
2021/08/28 09:00:00;;;;;;;23.15;12.65;;;;;;;;;;5093244;28;20020;-70
2021/08/28 09:02:25;;;;;;;22.57;14.03;;;;;;;;;;5092804;28;20497;-70
2021/08/28 09:04:50;;;;;;;21.13;14.00;;;;;;;;;;5093304;28;20410;-70
2021/08/28 09:07:15;;;;;;;21.03;13.93;;;;;;;;;;5092661;28;20038;-70
2021/08/28 09:09:41;;;;;;;19.30;13.63;;;;;;;;;;5092019;28;20282;-70
2021/08/28 09:12:10;;;;;;;28.55;15.93;;;;;;;;;;5092539;28;20040;-70
2021/08/28 09:14:35;;;;;;;23.42;14.93;;;;;;;;;;5083838;28;20025;-70
2021/08/28 09:17:32;;;;;;;25.37;16.17;;;;;;;;;;5072469;28;20352;-70
2021/08/28 09:19:57;;;;;;;22.58;14.80;;;;;;;;;;5029168;28;20262;-70
2021/08/28 09:22:23;;;;;;;28.70;15.05;;;;;;;;;;5073483;28;20020;-70
2021/08/28 09:24:49;;;;;;;20.33;15.13;;;;;;;;;;5091183;28;20556;-71
2021/08/28 09:27:33;;;;;;;27.27;15.90;;;;;;;;;;5075818;28;20131;-70
2021/08/28 09:29:58;;;;;;;26.33;15.93;;;;;;;;;;5072577;28;20413;-70
2021/08/28 09:32:23;;;;;;;21.27;14.45;;;;;;;;;;5081253;28;20024;-70
2021/08/28 09:34:48;;;;;;;28.25;15.45;;;;;;;;;;5092178;28;20038;-70
2021/08/28 09:37:14;;;;;;;22.30;13.60;;;;;;;;;;5092730;28;20051;-70
2021/08/28 09:39:43;;;;;;;19.15;13.85;;;;;;;;;;5091214;28;20111;-70
2021/08/28 09:42:10;;;;;;;21.02;13.80;;;;;;;;;;5086017;28;20451;-70
2021/08/28 09:44:47;;;;;;;20.35;12.13;;;;;;;;;;5071629;28;20048;-70
2021/08/28 09:47:16;;;;;;;22.85;13.27;;;;;;;;;;5072537;28;20018;-70
2021/08/28 09:49:48;;;;;;;18.07;11.43;;;;;;;;;;5072292;28;20029;-70
2021/08/28 09:52:14;;;;;;;18.73;11.82;;;;;;;;;;5072350;28;20545;-70
2021/08/28 09:54:40;;;;;;;14.88;11.02;;;;;;;;;;5071703;28;20123;-70
2021/08/28 09:57:05;;;;;;;20.10;11.25;;;;;;;;;;5070962;28;20095;-70
2021/08/28 09:59:30;;;;;;;16.05;9.88;;;;;;;;;;5071889;28;20355;-70
2021/08/28 10:01:55;;;;;;;16.38;8.50;;;;;;;;;;5075975;28;20055;-71
2021/08/28 10:04:21;;;;;;;13.70;7.82;;;;;;;;;;5082321;28;20021;-70
2021/08/28 10:06:47;;;;;;;14.25;7.25;;;;;;;;;;5071706;28;20036;-70
2021/08/28 10:09:13;;;;;;;13.90;7.35;;;;;;;;;;5071925;28;20020;-70
2021/08/28 10:11:38;;;;;;;10.88;6.25;;;;;;;;;;5073177;28;20012;-70
2021/08/28 10:14:04;;;;;;;11.88;5.70;;;;;;;;;;5091584;28;20509;-70
2021/08/28 10:16:30;;;;;;;8.85;5.53;;;;;;;;;;5079526;28;20077;-70
2021/08/28 10:18:55;;;;;;;12.65;6.07;;;;;;;;;;5071306;28;20016;-70
2021/08/28 10:21:21;;;;;;;8.90;5.63;;;;;;;;;;5071075;28;20050;-70
2021/08/28 10:23:52;;;;;;;9.13;5.17;;;;;;;;;;5090546;28;20047;-70
2021/08/28 10:26:17;;;;;;;10.10;5.22;;;;;;;;;;5091920;28;20357;-70
2021/08/28 10:28:43;;;;;;;13.40;5.72;;;;;;;;;;5091611;28;20521;-70
2021/08/28 10:31:10;;;;;;;8.45;5.05;;;;;;;;;;5083133;28;20374;-70
2021/08/28 10:33:35;;;;;;;9.40;5.50;;;;;;;;;;5091010;28;20095;-70
2021/08/28 10:36:00;;;;;;;13.65;5.20;;;;;;;;;;5091627;28;20120;-70
2021/08/28 10:38:26;;;;;;;14.95;5.25;;;;;;;;;;5091606;28;20012;-70
2021/08/28 10:40:53;;;;;;;10.32;5.57;;;;;;;;;;5082665;28;20024;-70
2021/08/28 10:43:18;;;;;;;8.07;5.63;;;;;;;;;;5070507;28;20101;-70
2021/08/28 10:45:46;;;;;;;12.90;5.95;;;;;;;;;;5070935;28;20059;-70
2021/08/28 10:48:13;;;;;;;8.90;5.65;;;;;;;;;;5074145;28;20020;-70
2021/08/28 10:50:39;;;;;;;10.00;4.97;;;;;;;;;;5090744;28;20028;-70
2021/08/28 10:53:05;;;;;;;11.13;6.07;;;;;;;;;;5085668;28;20017;-70
2021/08/28 10:55:33;;;;;;;12.02;5.38;;;;;;;;;;5070759;28;20032;-70
2021/08/28 10:58:12;;;;;;;10.73;5.72;;;;;;;;;;5071094;28;20025;-71
2021/08/28 11:00:41;;;;;;;9.07;5.53;;;;;;;;;;5090959;28;20500;-70
2021/08/28 11:03:20;;;;;;;9.87;5.70;;;;;;;;;;5090875;28;20016;-71
2021/08/28 11:05:46;;;;;;;11.00;5.32;;;;;;;;;;5082433;28;20486;-70
2021/08/28 11:08:15;;;;;;;12.43;5.35;;;;;;;;;;5072811;28;20028;-70
2021/08/28 11:10:40;;;;;;;15.80;5.13;;;;;;;;;;5089664;28;20024;-70
2021/08/28 11:13:06;;;;;;;9.32;4.50;;;;;;;;;;5090806;28;20486;-70
2021/08/28 11:15:34;;;;;;;7.88;4.82;;;;;;;;;;5090529;28;20030;-71
2021/08/28 11:18:01;;;;;;;8.80;4.55;;;;;;;;;;5078582;28;20021;-70
2021/08/28 11:20:29;;;;;;;8.52;4.43;;;;;;;;;;5090180;28;20020;-70
2021/08/28 11:22:54;;;;;;;8.40;4.60;;;;;;;;;;5090368;28;20023;-70
2021/08/28 11:25:25;;;;;;;6.65;4.60;;;;;;;;;;5090697;28;20028;-70
2021/08/28 11:27:53;;;;;;;9.52;4.97;;;;;;;;;;5090557;28;20056;-70
2021/08/28 11:30:38;;;;;;;15.60;5.30;;;;;;;;;;5071900;28;20082;-70
2021/08/28 11:33:07;;;;;;;9.35;5.10;;;;;;;;;;5069362;28;20028;-70
2021/08/28 11:35:33;;;;;;;9.02;5.05;;;;;;;;;;5068798;28;20024;-70
2021/08/28 11:38:04;;;;;;;8.90;5.43;;;;;;;;;;5070302;28;20024;-69
2021/08/28 11:40:30;;;;;;;8.40;5.05;;;;;;;;;;5069977;28;20270;-69
2021/08/28 11:42:56;;;;;;;10.23;5.32;;;;;;;;;;5069904;28;20020;-69
2021/08/28 11:45:28;;;;;;;8.73;5.30;;;;;;;;;;5070259;28;20027;-69
2021/08/28 11:47:54;;;;;;;7.07;4.75;;;;;;;;;;5070372;28;20096;-69
2021/08/28 11:50:19;;;;;;;7.68;4.43;;;;;;;;;;5069789;28;20730;-69
2021/08/28 11:52:44;;;;;;;9.45;4.68;;;;;;;;;;5069717;28;20074;-70
2021/08/28 11:55:10;;;;;;;11.33;6.10;;;;;;;;;;5069566;28;20028;-70
2021/08/28 11:57:36;;;;;;;13.32;5.30;;;;;;;;;;5070052;28;20274;-70
2021/08/28 12:00:04;;;;;;;10.38;5.85;;;;;;;;;;5084826;28;20493;-70
2021/08/28 12:02:30;;;;;;;8.27;4.35;;;;;;;;;;5090189;28;20023;-70
2021/08/28 12:04:55;;;;;;;7.47;4.50;;;;;;;;;;5089830;28;20024;-70
2021/08/28 12:07:20;;;;;;;6.23;3.83;;;;;;;;;;5070169;28;20020;-70
2021/08/28 12:09:46;;;;;;;7.10;3.83;;;;;;;;;;5080344;28;20265;-69
2021/08/28 12:12:11;;;;;;;7.03;4.18;;;;;;;;;;5090376;28;20527;-70
2021/08/28 12:14:36;;;;;;;7.22;4.28;;;;;;;;;;5112855;22;20051;-68
2021/08/28 12:17:02;;;;;;;6.60;4.23;;;;;;;;;;5082976;28;20497;-68
2021/08/28 12:19:30;;;;;;;7.22;4.10;;;;;;;;;;5089393;28;20285;-68
2021/08/28 12:21:56;;;;;;;12.43;7.03;;;;;;;;;;5075841;28;20031;-68
2021/08/28 12:24:22;;;;;;;7.70;4.53;;;;;;;;;;5070121;28;20137;-68
2021/08/28 12:26:52;;;;;;;5.18;3.60;;;;;;;;;;5072532;28;20078;-68
2021/08/28 12:29:25;;;;;;;4.60;3.50;;;;;;;;;;5089400;28;20020;-68
2021/08/28 12:31:57;;;;;;;11.85;4.63;;;;;;;;;;5089634;28;20290;-68
2021/08/28 12:34:23;;;;;;;5.20;3.60;;;;;;;;;;5089961;28;20022;-68
2021/08/28 12:36:49;;;;;;;5.05;3.03;;;;;;;;;;5089683;28;20074;-68
2021/08/28 12:39:15;;;;;;;7.30;3.28;;;;;;;;;;5089607;28;20432;-68
2021/08/28 12:41:41;;;;;;;4.88;3.10;;;;;;;;;;5089182;28;20016;-68
2021/08/28 12:44:06;;;;;;;5.60;3.08;;;;;;;;;;5092409;28;20362;-68
2021/08/28 12:46:33;;;;;;;6.05;3.10;;;;;;;;;;5093259;28;20024;-68
2021/08/28 12:49:10;;;;;;;5.30;3.67;;;;;;;;;;5093536;28;20020;-68
2021/08/28 12:51:35;;;;;;;5.03;3.10;;;;;;;;;;5092622;28;20035;-68
2021/08/28 12:54:01;;;;;;;11.35;4.28;;;;;;;;;;5092814;28;20163;-68
2021/08/28 12:56:26;;;;;;;5.72;3.00;;;;;;;;;;5093208;28;20339;-68
2021/08/28 12:58:52;;;;;;;5.33;3.27;;;;;;;;;;5093119;28;20016;-68
2021/08/28 13:01:17;;;;;;;6.73;3.47;;;;;;;;;;5093196;28;20258;-68
2021/08/28 13:03:49;;;;;;;6.90;3.00;;;;;;;;;;5092150;28;20281;-68
2021/08/28 13:06:21;;;;;;;7.00;3.60;;;;;;;;;;5088414;28;20615;-68
2021/08/28 13:08:47;;;;;;;6.85;3.40;;;;;;;;;;5093096;28;20374;-68
2021/08/28 13:11:25;;;;;;;6.47;3.92;;;;;;;;;;5093558;28;20016;-68
2021/08/28 13:14:02;;;;;;;7.03;4.03;;;;;;;;;;5092367;28;20037;-68
2021/08/28 13:16:27;;;;;;;8.05;4.18;;;;;;;;;;5092519;28;20038;-68
2021/08/28 13:19:09;;;;;;;5.20;3.23;;;;;;;;;;5092745;28;20019;-68
2021/08/28 13:21:35;;;;;;;5.07;3.25;;;;;;;;;;5092263;28;20341;-68
2021/08/28 13:24:07;;;;;;;11.70;3.17;;;;;;;;;;5092366;28;20149;-68
2021/08/28 13:26:32;;;;;;;4.95;3.60;;;;;;;;;;5092406;28;20529;-68
2021/08/28 13:28:58;;;;;;;7.57;3.87;;;;;;;;;;5092740;28;20110;-68
2021/08/28 13:31:23;;;;;;;6.72;4.20;;;;;;;;;;5092527;28;20262;-68
2021/08/28 13:34:03;;;;;;;6.38;4.32;;;;;;;;;;5091788;28;20032;-68
2021/08/28 13:36:28;;;;;;;5.65;3.72;;;;;;;;;;5072894;28;20151;-68
2021/08/28 13:38:53;;;;;;;6.10;3.67;;;;;;;;;;5072252;28;20115;-68
2021/08/28 13:41:18;;;;;;;6.57;3.50;;;;;;;;;;5072518;28;20477;-67
2021/08/28 13:43:44;;;;;;;5.77;3.93;;;;;;;;;;5084096;28;20029;-68
2021/08/28 13:46:09;;;;;;;6.47;4.13;;;;;;;;;;5092509;28;20269;-68
2021/08/28 13:48:34;;;;;;;5.40;3.80;;;;;;;;;;5092211;28;20035;-68
2021/08/28 13:50:59;;;;;;;5.03;3.92;;;;;;;;;;5091913;28;20269;-68
2021/08/28 13:53:24;;;;;;;7.22;4.20;;;;;;;;;;5092173;28;20103;-68
2021/08/28 13:55:50;;;;;;;5.83;3.20;;;;;;;;;;5090172;28;20024;-68
2021/08/28 13:58:15;;;;;;;4.13;3.40;;;;;;;;;;5090985;28;20670;-68
2021/08/28 14:00:40;;;;;;;6.70;4.55;;;;;;;;;;5091009;28;20268;-68
2021/08/28 14:03:05;;;;;;;6.28;4.22;;;;;;;;;;5091850;28;20024;-68
2021/08/28 14:05:31;;;;;;;8.52;3.97;;;;;;;;;;5091965;28;20024;-68
2021/08/28 14:07:58;;;;;;;7.40;3.25;;;;;;;;;;5091881;28;20031;-68
2021/08/28 14:10:23;;;;;;;8.98;4.18;;;;;;;;;;5091805;28;20047;-68
2021/08/28 14:12:48;;;;;;;6.97;3.63;;;;;;;;;;5089391;28;20504;-68
2021/08/28 14:15:15;;;;;;;6.18;4.22;;;;;;;;;;5096264;28;20289;-68
2021/08/28 14:17:40;;;;;;;9.25;3.67;;;;;;;;;;5091298;28;20016;-68